Time,TemperatureF,DewpointF,PressureIn,WindDirection,WindDirectionDegrees,WindSpeedMPH,WindSpeedGustMPH,Humidity,HourlyPrecipIn,Conditions,Clouds,dailyrainin,SoftwareType,DateUTC
2013-02-23 00:00:00,35.1,31.6,30.14,ENE,65,0.0,0.0,87,0.00,,---,0.00,VWS V13.01,2013-02-23 05:00:00,
2013-02-23 00:05:00,35.1,31.6,30.14,ENE,65,2.2,2.2,87,0.00,,---,0.00,VWS V13.01,2013-02-23 05:05:00,
2013-02-23 00:10:00,35.1,31.6,30.14,ENE,65,0.0,0.0,87,0.00,,---,0.00,VWS V13.01,2013-02-23 05:10:00,
2013-02-23 00:15:00,35.1,31.6,30.14,ENE,65,0.0,0.0,87,0.00,,---,0.00,VWS V13.01,2013-02-23 05:15:00,
2013-02-23 00:20:00,35.1,31.6,30.14,ENE,65,0.0,0.0,87,0.00,,---,0.00,VWS V13.01,2013-02-23 05:20:00,
2013-02-23 00:25:00,35.1,31.9,30.14,ENE,65,0.0,2.2,88,0.00,,---,0.00,VWS V13.01,2013-02-23 05:25:00,
2013-02-23 00:30:00,35.1,31.9,30.14,ENE,65,0.0,2.7,88,0.00,,---,0.00,VWS V13.01,2013-02-23 05:30:00,
2013-02-23 00:35:00,35.1,32.2,30.14,ENE,65,0.0,0.0,89,0.00,,---,0.00,VWS V13.01,2013-02-23 05:35:00,
2013-02-23 00:40:00,35.1,32.2,30.11,ENE,65,0.0,2.2,89,0.00,,---,0.00,VWS V13.01,2013-02-23 05:40:00,
2013-02-23 00:45:00,35.1,32.4,30.11,NE,42,3.6,3.6,90,0.00,,---,0.00,VWS V13.01,2013-02-23 05:45:00,
2013-02-23 00:50:00,35.1,32.7,30.11,NE,38,0.0,2.7,91,0.00,,---,0.00,VWS V13.01,2013-02-23 05:50:00,
2013-02-23 00:55:00,35.1,32.7,30.14,NNE,27,2.7,2.7,91,0.00,,---,0.00,VWS V13.01,2013-02-23 05:55:00,
2013-02-23 01:00:00,35.1,32.7,30.14,NNE,30,3.1,3.1,91,0.00,,---,0.00,VWS V13.01,2013-02-23 06:00:00,
2013-02-23 01:05:00,35.1,33.0,30.14,NNE,21,0.0,0.0,92,0.00,,---,0.00,VWS V13.01,2013-02-23 06:05:00,
2013-02-23 01:10:00,35.1,33.0,30.11,NNE,33,2.7,2.7,92,0.00,,---,0.00,VWS V13.01,2013-02-23 06:10:00,
2013-02-23 01:15:00,35.1,33.2,30.11,NE,35,0.0,2.2,93,0.00,,---,0.00,VWS V13.01,2013-02-23 06:15:00,
2013-02-23 01:20:00,35.2,33.4,30.11,NE,35,0.0,0.0,93,0.00,,---,0.00,VWS V13.01,2013-02-23 06:20:00,
2013-02-23 01:25:00,35.2,33.4,30.11,NE,34,0.0,0.0,93,0.00,,---,0.00,VWS V13.01,2013-02-23 06:25:00,
2013-02-23 01:30:00,35.2,33.4,30.11,NNE,28,2.7,2.7,93,0.00,,---,0.00,VWS V13.01,2013-02-23 06:30:00,
2013-02-23 01:35:00,35.2,33.7,30.11,NNE,31,2.7,2.7,94,0.00,,---,0.00,VWS V13.01,2013-02-23 06:35:00,
2013-02-23 01:40:00,35.2,33.7,30.08,NNE,30,0.0,2.2,94,0.00,,---,0.00,VWS V13.01,2013-02-23 06:40:00,
2013-02-23 01:45:00,35.2,33.7,30.08,NE,48,0.0,2.7,94,0.00,,---,0.00,VWS V13.01,2013-02-23 06:45:00,
2013-02-23 01:50:00,35.4,33.9,30.08,NE,48,2.2,2.7,94,0.00,,---,0.00,VWS V13.01,2013-02-23 06:50:00,
2013-02-23 01:55:00,35.4,33.6,30.08,NE,50,2.2,2.2,93,0.00,,---,0.00,VWS V13.01,2013-02-23 06:55:00,
2013-02-23 02:00:00,35.4,33.6,30.08,NE,46,0.0,0.0,93,0.00,,---,0.00,VWS V13.01,2013-02-23 07:00:00,
2013-02-23 02:05:00,35.4,33.6,30.08,NE,46,0.0,0.0,93,0.00,,---,0.00,VWS V13.01,2013-02-23 07:05:00,
2013-02-23 02:10:00,35.6,33.8,30.08,NE,46,0.0,0.0,93,0.00,,---,0.00,VWS V13.01,2013-02-23 07:10:00,
2013-02-23 02:15:00,35.6,33.8,30.08,NE,45,0.0,2.2,93,0.00,,---,0.00,VWS V13.01,2013-02-23 07:15:00,
2013-02-23 02:20:00,35.6,33.8,30.08,NE,45,0.0,0.0,93,0.00,,---,0.00,VWS V13.01,2013-02-23 07:20:00,
2013-02-23 02:25:00,35.6,33.8,30.08,NE,45,0.0,0.0,93,0.00,,---,0.00,VWS V13.01,2013-02-23 07:25:00,
2013-02-23 02:30:00,35.8,34.0,30.08,NE,45,0.0,0.0,93,0.00,,---,0.00,VWS V13.01,2013-02-23 07:30:00,
2013-02-23 02:35:00,35.8,34.0,30.08,NE,45,0.0,2.2,93,0.00,,---,0.00,VWS V13.01,2013-02-23 07:35:00,
2013-02-23 02:40:00,35.8,34.0,30.08,NE,45,0.0,0.0,93,0.00,,---,0.00,VWS V13.01,2013-02-23 07:40:00,
2013-02-23 02:45:00,35.8,34.0,30.08,NE,45,0.0,0.0,93,0.00,,---,0.00,VWS V13.01,2013-02-23 07:45:00,
2013-02-23 02:50:00,36.0,34.1,30.08,NE,45,0.0,0.0,93,0.00,,---,0.00,VWS V13.01,2013-02-23 07:50:00,
2013-02-23 02:55:00,36.0,34.1,30.08,NE,45,0.0,0.0,93,0.00,,---,0.00,VWS V13.01,2013-02-23 07:55:00,
2013-02-23 03:00:00,36.0,34.1,30.08,NE,45,0.0,0.0,93,0.00,,---,0.00,VWS V13.01,2013-02-23 08:00:00,
2013-02-23 03:05:00,36.0,34.1,30.08,NE,45,0.0,0.0,93,0.00,,---,0.00,VWS V13.01,2013-02-23 08:05:00,
2013-02-23 03:10:00,36.1,34.3,30.05,NE,45,0.0,0.0,93,0.00,,---,0.00,VWS V13.01,2013-02-23 08:10:00,
2013-02-23 03:15:00,36.1,34.3,30.05,NE,45,0.0,0.0,93,0.00,,---,0.00,VWS V13.01,2013-02-23 08:15:00,
2013-02-23 03:20:00,36.1,34.3,30.05,NE,45,0.0,0.0,93,0.00,,---,0.00,VWS V13.01,2013-02-23 08:20:00,
2013-02-23 03:25:00,36.1,34.3,30.05,NE,45,0.0,0.0,93,0.00,,---,0.00,VWS V13.01,2013-02-23 08:25:00,
2013-02-23 03:30:00,36.1,34.3,30.05,NE,45,0.0,0.0,93,0.00,,---,0.00,VWS V13.01,2013-02-23 08:30:00,
2013-02-23 03:35:00,36.1,34.0,30.05,NE,45,0.0,0.0,92,0.00,,---,0.00,VWS V13.01,2013-02-23 08:35:00,
2013-02-23 03:40:00,36.1,34.3,30.05,NE,45,0.0,0.0,93,0.04,,---,0.04,VWS V13.01,2013-02-23 08:40:00,
2013-02-23 03:45:00,36.1,34.3,30.05,NE,45,0.0,0.0,93,0.04,,---,0.04,VWS V13.01,2013-02-23 08:45:00,
2013-02-23 03:50:00,36.1,34.3,30.05,NE,45,2.2,2.2,93,0.04,,---,0.04,VWS V13.01,2013-02-23 08:50:00,
2013-02-23 03:55:00,36.1,34.3,30.05,NE,45,0.0,2.7,93,0.04,,---,0.04,VWS V13.01,2013-02-23 08:55:00,
2013-02-23 04:00:00,36.1,34.6,30.05,NE,42,2.7,3.1,94,0.04,,---,0.04,VWS V13.01,2013-02-23 09:00:00,
2013-02-23 04:05:00,36.1,34.8,30.05,NE,42,0.0,0.0,95,0.04,,---,0.04,VWS V13.01,2013-02-23 09:05:00,
2013-02-23 04:10:00,36.3,35.0,30.02,NE,42,0.0,0.0,95,0.04,,---,0.04,VWS V13.01,2013-02-23 09:10:00,
2013-02-23 04:15:00,36.3,35.0,30.02,NE,42,0.0,0.0,95,0.04,,---,0.04,VWS V13.01,2013-02-23 09:15:00,
2013-02-23 04:20:00,36.3,35.0,30.02,NE,42,0.0,0.0,95,0.04,,---,0.04,VWS V13.01,2013-02-23 09:20:00,
2013-02-23 04:25:00,36.3,35.0,30.02,NE,42,0.0,0.0,95,0.04,,---,0.04,VWS V13.01,2013-02-23 09:25:00,
2013-02-23 04:30:00,36.5,35.2,30.02,NE,42,0.0,0.0,95,0.04,,---,0.04,VWS V13.01,2013-02-23 09:30:00,
2013-02-23 04:35:00,36.5,35.2,30.02,NE,42,0.0,0.0,95,0.04,,---,0.04,VWS V13.01,2013-02-23 09:35:00,
2013-02-23 04:40:00,36.7,35.4,30.02,NE,42,0.0,0.0,95,0.04,,---,0.04,VWS V13.01,2013-02-23 09:40:00,
2013-02-23 04:45:00,36.7,35.4,30.02,NE,42,0.0,0.0,95,0.00,,---,0.04,VWS V13.01,2013-02-23 09:45:00,
2013-02-23 04:50:00,36.7,35.4,30.02,NE,42,0.0,3.1,95,0.00,,---,0.04,VWS V13.01,2013-02-23 09:50:00,
2013-02-23 04:55:00,36.7,35.4,30.02,NE,42,0.0,0.0,95,0.00,,---,0.04,VWS V13.01,2013-02-23 09:55:00,
2013-02-23 05:00:00,36.9,35.6,30.02,NE,42,0.0,0.0,95,0.00,,---,0.04,VWS V13.01,2013-02-23 10:00:00,
2013-02-23 05:05:00,36.9,35.6,30.02,NE,42,0.0,0.0,95,0.00,,---,0.04,VWS V13.01,2013-02-23 10:05:00,
2013-02-23 05:10:00,36.9,35.6,30.02,NE,42,2.7,3.1,95,0.00,,---,0.04,VWS V13.01,2013-02-23 10:10:00,
2013-02-23 05:15:00,37.0,36.0,30.02,NE,41,2.2,2.7,96,0.00,,---,0.04,VWS V13.01,2013-02-23 10:15:00,
2013-02-23 05:20:00,37.0,36.0,30.02,NE,40,0.0,0.0,96,0.00,,---,0.04,VWS V13.01,2013-02-23 10:20:00,
2013-02-23 05:25:00,37.2,36.2,30.02,NE,40,0.0,2.7,96,0.00,,---,0.04,VWS V13.01,2013-02-23 10:25:00,
2013-02-23 05:30:00,37.2,36.2,30.02,NE,40,0.0,0.0,96,0.00,,---,0.04,VWS V13.01,2013-02-23 10:30:00,
2013-02-23 05:35:00,37.4,36.4,30.02,NE,41,0.0,2.7,96,0.00,,---,0.04,VWS V13.01,2013-02-23 10:35:00,
2013-02-23 05:40:00,37.4,36.4,29.99,NE,55,3.1,3.1,96,0.00,,---,0.04,VWS V13.01,2013-02-23 10:40:00,
2013-02-23 05:45:00,37.4,36.4,29.99,ENE,65,2.7,3.1,96,0.00,,---,0.04,VWS V13.01,2013-02-23 10:45:00,
2013-02-23 05:50:00,37.6,36.5,29.99,ENE,65,0.0,2.7,96,0.00,,---,0.04,VWS V13.01,2013-02-23 10:50:00,
2013-02-23 05:55:00,37.6,36.5,30.02,ENE,65,3.1,3.1,96,0.00,,---,0.04,VWS V13.01,2013-02-23 10:55:00,
2013-02-23 06:00:00,37.8,36.7,30.02,ENE,65,2.2,2.2,96,0.00,,---,0.04,VWS V13.01,2013-02-23 11:00:00,
2013-02-23 06:05:00,37.8,36.7,30.02,ENE,65,0.0,0.0,96,0.00,,---,0.04,VWS V13.01,2013-02-23 11:05:00,
2013-02-23 06:10:00,37.9,36.9,29.99,ENE,64,0.0,2.2,96,0.00,,---,0.04,VWS V13.01,2013-02-23 11:10:00,
2013-02-23 06:15:00,38.1,37.1,29.99,ENE,58,0.0,0.0,96,0.00,,---,0.04,VWS V13.01,2013-02-23 11:15:00,
2013-02-23 06:20:00,38.1,37.1,29.99,ENE,58,0.0,0.0,96,0.00,,---,0.04,VWS V13.01,2013-02-23 11:20:00,
2013-02-23 06:25:00,38.1,37.1,29.99,ENE,58,0.0,0.0,96,0.00,,---,0.04,VWS V13.01,2013-02-23 11:25:00,
2013-02-23 06:30:00,38.3,37.3,29.99,ENE,58,3.1,3.1,96,0.00,,---,0.04,VWS V13.01,2013-02-23 11:30:00,
2013-02-23 06:35:00,38.3,37.5,29.99,ENE,58,0.0,0.0,97,0.00,,---,0.04,VWS V13.01,2013-02-23 11:35:00,
2013-02-23 06:40:00,38.5,37.7,29.99,ENE,66,4.9,4.9,97,0.00,,---,0.04,VWS V13.01,2013-02-23 11:40:00,
2013-02-23 06:45:00,38.5,37.7,29.99,ENE,66,2.7,3.6,97,0.00,,---,0.04,VWS V13.01,2013-02-23 11:45:00,
2013-02-23 06:50:00,38.5,37.7,29.99,ENE,66,2.2,3.1,97,0.00,,---,0.04,VWS V13.01,2013-02-23 11:50:00,
2013-02-23 06:55:00,38.7,37.9,29.99,ENE,66,0.0,0.0,97,0.00,,---,0.04,VWS V13.01,2013-02-23 11:55:00,
2013-02-23 07:00:00,38.7,37.9,29.99,ENE,66,0.0,0.0,97,0.00,,---,0.04,VWS V13.01,2013-02-23 12:00:00,
2013-02-23 07:05:00,38.8,38.1,29.99,ENE,66,0.0,0.0,97,0.00,,---,0.04,VWS V13.01,2013-02-23 12:05:00,
2013-02-23 07:10:00,38.8,38.1,29.96,ENE,66,0.0,2.2,97,0.00,,---,0.04,VWS V13.01,2013-02-23 12:10:00,
2013-02-23 07:15:00,39.0,38.0,29.96,ENE,66,0.0,2.7,96,0.00,,---,0.04,VWS V13.01,2013-02-23 12:15:00,
2013-02-23 07:20:00,39.2,38.2,29.96,ENE,66,2.7,2.7,96,0.00,,---,0.04,VWS V13.01,2013-02-23 12:20:00,
2013-02-23 07:25:00,39.4,38.3,29.96,ENE,66,2.2,2.7,96,0.00,,---,0.04,VWS V13.01,2013-02-23 12:25:00,
2013-02-23 07:30:00,39.4,38.3,29.96,ENE,66,2.2,2.2,96,0.00,,---,0.04,VWS V13.01,2013-02-23 12:30:00,
2013-02-23 07:35:00,39.6,38.5,29.96,ENE,66,0.0,3.6,96,0.00,,---,0.04,VWS V13.01,2013-02-23 12:35:00,
2013-02-23 07:40:00,39.7,38.7,29.96,ENE,66,3.1,3.1,96,0.00,,---,0.04,VWS V13.01,2013-02-23 12:40:00,
2013-02-23 07:45:00,39.7,38.7,29.96,ENE,66,0.0,0.0,96,0.00,,---,0.04,VWS V13.01,2013-02-23 12:45:00,
2013-02-23 07:50:00,39.9,39.1,29.96,NE,41,0.0,2.2,97,0.00,,---,0.04,VWS V13.01,2013-02-23 12:50:00,
2013-02-23 07:55:00,40.1,39.3,29.96,NNE,29,0.0,0.0,97,0.00,,---,0.04,VWS V13.01,2013-02-23 12:55:00,
2013-02-23 08:00:00,40.3,39.5,29.96,NNE,29,0.0,2.7,97,0.00,,---,0.04,VWS V13.01,2013-02-23 13:00:00,
2013-02-23 08:05:00,40.3,39.5,29.96,NNE,15,0.0,0.0,97,0.00,,---,0.04,VWS V13.01,2013-02-23 13:05:00,
2013-02-23 08:10:00,40.5,39.7,29.96,NNE,15,0.0,2.2,97,0.00,,---,0.04,VWS V13.01,2013-02-23 13:10:00,
2013-02-23 08:15:00,40.6,40.1,29.96,NNE,15,0.0,0.0,98,0.00,,---,0.04,VWS V13.01,2013-02-23 13:15:00,
2013-02-23 08:20:00,40.8,40.3,29.96,NNE,15,2.7,2.7,98,0.00,,---,0.04,VWS V13.01,2013-02-23 13:20:00,
2013-02-23 08:25:00,40.8,40.3,29.96,NNE,20,0.0,2.2,98,0.00,,---,0.04,VWS V13.01,2013-02-23 13:25:00,
2013-02-23 08:30:00,40.8,40.3,29.96,NNW,344,3.1,3.1,98,0.00,,---,0.04,VWS V13.01,2013-02-23 13:30:00,
2013-02-23 08:35:00,40.6,40.1,29.96,NNW,344,0.0,0.0,98,0.00,,---,0.04,VWS V13.01,2013-02-23 13:35:00,
2013-02-23 08:40:00,40.8,40.3,29.96,North,9,2.7,2.7,98,0.00,,---,0.04,VWS V13.01,2013-02-23 13:40:00,
2013-02-23 08:45:00,41.0,40.5,29.96,NNE,20,0.0,2.7,98,0.00,,---,0.04,VWS V13.01,2013-02-23 13:45:00,
2013-02-23 08:50:00,41.0,40.5,29.96,NNE,23,3.1,3.1,98,0.00,,---,0.04,VWS V13.01,2013-02-23 13:50:00,
2013-02-23 08:55:00,41.0,40.5,29.93,NNE,19,0.0,0.0,98,0.00,,---,0.04,VWS V13.01,2013-02-23 13:55:00,
2013-02-23 09:00:00,41.2,40.7,29.93,NNE,25,2.7,3.1,98,0.00,,---,0.04,VWS V13.01,2013-02-23 14:00:00,
2013-02-23 09:05:00,41.2,40.7,29.93,NNE,14,2.7,2.7,98,0.04,,---,0.08,VWS V13.01,2013-02-23 14:05:00,
2013-02-23 09:10:00,41.2,40.7,29.93,NE,44,2.7,3.1,98,0.04,,---,0.08,VWS V13.01,2013-02-23 14:10:00,
2013-02-23 09:15:00,41.2,40.7,29.93,North,10,0.0,2.7,98,0.04,,---,0.08,VWS V13.01,2013-02-23 14:15:00,
2013-02-23 09:20:00,41.4,40.8,29.93,NNE,32,2.7,2.7,98,0.04,,---,0.08,VWS V13.01,2013-02-23 14:20:00,
2013-02-23 09:25:00,41.5,41.0,29.93,NE,36,0.0,0.0,98,0.04,,---,0.08,VWS V13.01,2013-02-23 14:25:00,
2013-02-23 09:30:00,41.5,41.0,29.93,NNE,29,2.2,2.7,98,0.04,,---,0.08,VWS V13.01,2013-02-23 14:30:00,
2013-02-23 09:35:00,41.7,41.2,29.93,NNE,18,2.7,2.7,98,0.04,,---,0.08,VWS V13.01,2013-02-23 14:35:00,
2013-02-23 09:40:00,41.7,41.2,29.93,NNE,17,0.0,0.0,98,0.04,,---,0.08,VWS V13.01,2013-02-23 14:40:00,
2013-02-23 09:45:00,41.7,41.2,29.93,NNE,15,2.7,2.7,98,0.04,,---,0.08,VWS V13.01,2013-02-23 14:45:00,
2013-02-23 09:50:00,41.7,41.2,29.93,North,357,4.0,4.5,98,0.04,,---,0.08,VWS V13.01,2013-02-23 14:50:00,
2013-02-23 09:55:00,41.7,41.2,29.90,North,357,2.7,3.1,98,0.04,,---,0.08,VWS V13.01,2013-02-23 14:55:00,
2013-02-23 10:00:00,41.7,41.2,29.90,North,357,2.7,3.1,98,0.04,,---,0.08,VWS V13.01,2013-02-23 15:00:00,
2013-02-23 10:05:00,41.9,41.4,29.90,North,11,3.1,3.1,98,0.04,,---,0.08,VWS V13.01,2013-02-23 15:05:00,
2013-02-23 10:10:00,41.7,41.2,29.90,NNE,19,2.7,2.7,98,0.00,,---,0.08,VWS V13.01,2013-02-23 15:10:00,
2013-02-23 10:15:00,41.7,41.2,29.90,NNW,335,3.6,3.6,98,0.00,,---,0.08,VWS V13.01,2013-02-23 15:15:00,
2013-02-23 10:20:00,41.7,41.2,29.90,NE,44,2.7,3.6,98,0.00,,---,0.08,VWS V13.01,2013-02-23 15:20:00,
2013-02-23 10:25:00,41.7,41.2,29.90,North,0,3.6,3.6,98,0.00,,---,0.08,VWS V13.01,2013-02-23 15:25:00,
2013-02-23 10:30:00,41.7,41.2,29.90,NNE,21,2.7,4.9,98,0.00,,---,0.08,VWS V13.01,2013-02-23 15:30:00,
2013-02-23 10:35:00,41.9,41.4,29.90,NNE,33,0.0,2.2,98,0.00,,---,0.08,VWS V13.01,2013-02-23 15:35:00,
2013-02-23 10:40:00,41.9,41.4,29.87,NNE,25,2.7,3.1,98,0.00,,---,0.08,VWS V13.01,2013-02-23 15:40:00,
2013-02-23 10:45:00,42.1,41.6,29.87,NE,35,0.0,2.2,98,0.04,,---,0.12,VWS V13.01,2013-02-23 15:45:00,
2013-02-23 10:50:00,42.3,41.7,29.87,NE,44,2.2,2.2,98,0.04,,---,0.12,VWS V13.01,2013-02-23 15:50:00,
2013-02-23 10:55:00,42.6,42.1,29.87,NE,42,3.1,3.1,98,0.04,,---,0.12,VWS V13.01,2013-02-23 15:55:00,
2013-02-23 11:00:00,42.8,42.3,29.87,NE,42,0.0,0.0,98,0.04,,---,0.12,VWS V13.01,2013-02-23 16:00:00,
2013-02-23 11:05:00,42.8,42.3,29.87,NNE,30,3.1,3.1,98,0.04,,---,0.12,VWS V13.01,2013-02-23 16:05:00,
2013-02-23 11:10:00,43.2,42.6,29.87,NNE,30,0.0,2.2,98,0.04,,---,0.12,VWS V13.01,2013-02-23 16:10:00,
2013-02-23 11:15:00,43.3,42.8,29.87,NNE,18,3.6,3.6,98,0.04,,---,0.12,VWS V13.01,2013-02-23 16:15:00,
2013-02-23 11:20:00,43.3,42.8,29.87,NNE,25,2.7,4.0,98,0.04,,---,0.12,VWS V13.01,2013-02-23 16:20:00,
2013-02-23 11:25:00,43.3,42.8,29.84,NNE,24,3.1,3.1,98,0.04,,---,0.12,VWS V13.01,2013-02-23 16:25:00,
2013-02-23 11:30:00,43.5,43.0,29.84,NNE,23,0.0,3.1,98,0.04,,---,0.12,VWS V13.01,2013-02-23 16:30:00,
2013-02-23 11:35:00,43.7,43.2,29.84,NNE,22,0.0,0.0,98,0.04,,---,0.12,VWS V13.01,2013-02-23 16:35:00,
2013-02-23 11:40:00,43.7,43.2,29.84,North,2,0.0,0.0,98,0.04,,---,0.12,VWS V13.01,2013-02-23 16:40:00,
2013-02-23 11:45:00,44.1,43.5,29.84,North,7,2.7,2.7,98,0.04,,---,0.12,VWS V13.01,2013-02-23 16:45:00,
2013-02-23 11:50:00,44.1,43.5,29.84,NNE,29,0.0,3.1,98,0.00,,---,0.12,VWS V13.01,2013-02-23 16:50:00,
2013-02-23 11:55:00,44.4,43.9,29.81,NNE,29,0.0,3.1,98,0.00,,---,0.12,VWS V13.01,2013-02-23 16:55:00,
2013-02-23 12:00:00,44.6,44.1,29.81,North,2,0.0,0.0,98,0.00,,---,0.12,VWS V13.01,2013-02-23 17:00:00,
2013-02-23 12:05:00,44.8,44.2,29.81,NNW,332,3.1,3.1,98,0.00,,---,0.12,VWS V13.01,2013-02-23 17:05:00,
2013-02-23 12:10:00,44.8,44.2,29.81,NW,319,0.0,0.0,98,0.00,,---,0.12,VWS V13.01,2013-02-23 17:10:00,
2013-02-23 12:15:00,45.0,44.4,29.81,NW,326,0.0,2.7,98,0.00,,---,0.12,VWS V13.01,2013-02-23 17:15:00,
2013-02-23 12:20:00,45.0,44.4,29.81,NNW,329,2.7,4.9,98,0.00,,---,0.12,VWS V13.01,2013-02-23 17:20:00,
2013-02-23 12:25:00,45.0,44.4,29.81,NW,320,2.7,2.7,98,0.00,,---,0.12,VWS V13.01,2013-02-23 17:25:00,
2013-02-23 12:30:00,45.1,44.6,29.81,NNW,327,4.0,4.0,98,0.00,,---,0.12,VWS V13.01,2013-02-23 17:30:00,
2013-02-23 12:35:00,45.1,44.6,29.81,NNW,337,4.5,4.5,98,0.00,,---,0.12,VWS V13.01,2013-02-23 17:35:00,
2013-02-23 12:40:00,45.3,44.8,29.81,NW,325,0.0,3.6,98,0.00,,---,0.12,VWS V13.01,2013-02-23 17:40:00,
2013-02-23 12:45:00,45.3,44.8,29.81,NW,324,2.7,2.7,98,0.00,,---,0.12,VWS V13.01,2013-02-23 17:45:00,
2013-02-23 12:50:00,45.5,45.0,29.81,ESE,111,3.1,4.9,98,0.00,,---,0.12,VWS V13.01,2013-02-23 17:50:00,
2013-02-23 12:55:00,45.5,45.0,29.81,NW,308,3.1,3.1,98,0.00,,---,0.12,VWS V13.01,2013-02-23 17:55:00,
2013-02-23 13:00:00,45.5,45.0,29.81,NNW,330,2.7,3.1,98,0.00,,---,0.12,VWS V13.01,2013-02-23 18:00:00,
2013-02-23 13:05:00,45.5,45.0,29.81,WSW,252,4.0,4.0,98,0.00,,---,0.12,VWS V13.01,2013-02-23 18:05:00,
2013-02-23 13:10:00,45.7,45.2,29.81,West,268,2.7,2.7,98,0.00,,---,0.12,VWS V13.01,2013-02-23 18:10:00,
2013-02-23 13:15:00,45.9,45.3,29.81,NE,56,0.0,0.0,98,0.00,,---,0.12,VWS V13.01,2013-02-23 18:15:00,
2013-02-23 13:20:00,45.9,45.3,29.81,NNW,341,0.0,5.8,98,0.00,,---,0.12,VWS V13.01,2013-02-23 18:20:00,
2013-02-23 13:25:00,45.9,45.3,29.81,North,353,3.1,3.1,98,0.00,,---,0.12,VWS V13.01,2013-02-23 18:25:00,
2013-02-23 13:30:00,46.0,45.5,29.81,NW,314,2.7,3.1,98,0.00,,---,0.12,VWS V13.01,2013-02-23 18:30:00,
2013-02-23 13:35:00,46.2,45.7,29.81,ENE,60,0.0,2.2,98,0.00,,---,0.12,VWS V13.01,2013-02-23 18:35:00,
2013-02-23 13:40:00,46.2,45.7,29.78,NW,308,0.0,3.1,98,0.00,,---,0.12,VWS V13.01,2013-02-23 18:40:00,
2013-02-23 13:45:00,46.2,45.7,29.78,West,280,2.7,2.7,98,0.00,,---,0.12,VWS V13.01,2013-02-23 18:45:00,
2013-02-23 13:50:00,46.4,45.9,29.78,NW,305,4.5,4.5,98,0.00,,---,0.12,VWS V13.01,2013-02-23 18:50:00,
2013-02-23 13:55:00,46.4,45.9,29.81,NNE,12,2.7,2.7,98,0.00,,---,0.12,VWS V13.01,2013-02-23 18:55:00,
2013-02-23 14:00:00,46.4,45.9,29.81,SW,232,2.2,3.6,98,0.00,,---,0.12,VWS V13.01,2013-02-23 19:00:00,
2013-02-23 14:05:00,46.4,45.6,29.81,NNE,16,4.0,4.0,97,0.00,,---,0.12,VWS V13.01,2013-02-23 19:05:00,
2013-02-23 14:10:00,46.4,45.6,29.78,NW,307,4.9,4.9,97,0.00,,---,0.12,VWS V13.01,2013-02-23 19:10:00,
2013-02-23 14:15:00,46.4,45.6,29.78,NW,323,2.2,3.1,97,0.00,,---,0.12,VWS V13.01,2013-02-23 19:15:00,
2013-02-23 14:20:00,46.4,45.6,29.78,ENE,62,2.2,2.2,97,0.00,,---,0.12,VWS V13.01,2013-02-23 19:20:00,
2013-02-23 14:25:00,46.4,45.3,29.78,WNW,288,3.6,3.6,96,0.00,,---,0.12,VWS V13.01,2013-02-23 19:25:00,
2013-02-23 14:30:00,46.6,45.5,29.78,North,6,2.2,2.7,96,0.00,,---,0.12,VWS V13.01,2013-02-23 19:30:00,
2013-02-23 14:35:00,46.6,45.5,29.78,NE,44,0.0,2.2,96,0.00,,---,0.12,VWS V13.01,2013-02-23 19:35:00,
2013-02-23 14:40:00,46.8,45.7,29.78,WNW,295,3.1,3.1,96,0.00,,---,0.12,VWS V13.01,2013-02-23 19:40:00,
2013-02-23 14:45:00,46.8,45.7,29.78,NNW,342,0.0,2.7,96,0.00,,---,0.12,VWS V13.01,2013-02-23 19:45:00,
2013-02-23 14:50:00,46.8,45.7,29.78,NW,326,4.0,4.0,96,0.00,,---,0.12,VWS V13.01,2013-02-23 19:50:00,
2013-02-23 14:55:00,46.8,45.7,29.78,NNW,338,2.7,2.7,96,0.00,,---,0.12,VWS V13.01,2013-02-23 19:55:00,
2013-02-23 15:00:00,46.8,45.7,29.78,NW,326,2.7,3.6,96,0.00,,---,0.12,VWS V13.01,2013-02-23 20:00:00,
2013-02-23 15:05:00,46.8,45.7,29.78,NNW,332,0.0,0.0,96,0.00,,---,0.12,VWS V13.01,2013-02-23 20:05:00,
2013-02-23 15:10:00,46.8,45.4,29.78,NNW,344,2.7,2.7,95,0.00,,---,0.12,VWS V13.01,2013-02-23 20:10:00,
2013-02-23 15:15:00,46.6,45.2,29.78,WNW,295,3.1,3.1,95,0.00,,---,0.12,VWS V13.01,2013-02-23 20:15:00,
2013-02-23 15:20:00,46.8,45.4,29.78,West,270,2.2,4.0,95,0.00,,---,0.12,VWS V13.01,2013-02-23 20:20:00,
2013-02-23 15:25:00,46.8,45.4,29.78,NW,308,0.0,3.1,95,0.00,,---,0.12,VWS V13.01,2013-02-23 20:25:00,
2013-02-23 15:30:00,46.8,45.4,29.78,NNW,341,2.2,4.9,95,0.00,,---,0.12,VWS V13.01,2013-02-23 20:30:00,
2013-02-23 15:35:00,46.8,45.4,29.78,NNW,345,3.6,4.0,95,0.00,,---,0.12,VWS V13.01,2013-02-23 20:35:00,
2013-02-23 15:40:00,46.9,45.6,29.78,WNW,283,2.7,2.7,95,0.00,,---,0.12,VWS V13.01,2013-02-23 20:40:00,
2013-02-23 15:45:00,46.9,45.6,29.78,NW,304,0.0,3.6,95,0.00,,---,0.12,VWS V13.01,2013-02-23 20:45:00,
2013-02-23 15:50:00,47.1,45.8,29.78,NW,323,3.1,4.0,95,0.00,,---,0.12,VWS V13.01,2013-02-23 20:50:00,
2013-02-23 15:55:00,47.1,45.8,29.78,NW,319,3.1,3.1,95,0.00,,---,0.12,VWS V13.01,2013-02-23 20:55:00,
2013-02-23 16:00:00,47.1,45.5,29.78,NW,314,2.7,2.7,94,0.00,,---,0.12,VWS V13.01,2013-02-23 21:00:00,
2013-02-23 16:05:00,47.1,45.5,29.78,NNE,18,3.1,4.0,94,0.00,,---,0.12,VWS V13.01,2013-02-23 21:05:00,
2013-02-23 16:10:00,47.1,45.5,29.78,NW,320,2.7,2.7,94,0.00,,---,0.12,VWS V13.01,2013-02-23 21:10:00,
2013-02-23 16:15:00,47.1,45.5,29.78,NW,315,4.0,4.0,94,0.00,,---,0.12,VWS V13.01,2013-02-23 21:15:00,
2013-02-23 16:20:00,46.9,45.3,29.78,North,353,3.1,3.6,94,0.00,,---,0.12,VWS V13.01,2013-02-23 21:20:00,
2013-02-23 16:25:00,46.9,45.3,29.78,NNE,17,2.2,2.2,94,0.00,,---,0.12,VWS V13.01,2013-02-23 21:25:00,
2013-02-23 16:30:00,46.9,45.3,29.78,North,353,2.2,2.2,94,0.00,,---,0.12,VWS V13.01,2013-02-23 21:30:00,
2013-02-23 16:35:00,46.9,45.3,29.78,NNW,336,3.6,3.6,94,0.00,,---,0.12,VWS V13.01,2013-02-23 21:35:00,
2013-02-23 16:40:00,46.8,45.1,29.75,NE,43,0.0,0.0,94,0.00,,---,0.12,VWS V13.01,2013-02-23 21:40:00,
2013-02-23 16:45:00,46.8,45.1,29.75,North,357,3.6,3.6,94,0.00,,---,0.12,VWS V13.01,2013-02-23 21:45:00,
2013-02-23 16:50:00,46.8,45.1,29.75,NNE,15,2.7,2.7,94,0.00,,---,0.12,VWS V13.01,2013-02-23 21:50:00,
2013-02-23 16:55:00,46.6,45.0,29.75,NNE,26,0.0,2.7,94,0.00,,---,0.12,VWS V13.01,2013-02-23 21:55:00,
2013-02-23 17:00:00,46.6,45.0,29.75,North,4,3.6,3.6,94,0.00,,---,0.12,VWS V13.01,2013-02-23 22:00:00,
2013-02-23 17:05:00,46.6,45.0,29.75,North,1,2.7,2.7,94,0.00,,---,0.12,VWS V13.01,2013-02-23 22:05:00,
2013-02-23 17:10:00,46.6,45.0,29.75,NNE,33,3.6,4.9,94,0.00,,---,0.12,VWS V13.01,2013-02-23 22:10:00,
2013-02-23 17:15:00,46.4,45.0,29.75,North,5,2.2,3.1,95,0.00,,---,0.12,VWS V13.01,2013-02-23 22:15:00,
2013-02-23 17:20:00,46.4,45.0,29.75,North,9,2.2,3.1,95,0.00,,---,0.12,VWS V13.01,2013-02-23 22:20:00,
2013-02-23 17:25:00,46.4,45.0,29.75,NNE,18,0.0,2.2,95,0.00,,---,0.12,VWS V13.01,2013-02-23 22:25:00,
2013-02-23 17:30:00,46.2,44.9,29.75,North,2,2.2,2.2,95,0.00,,---,0.12,VWS V13.01,2013-02-23 22:30:00,
2013-02-23 17:35:00,46.2,44.9,29.75,North,353,0.0,3.1,95,0.00,,---,0.12,VWS V13.01,2013-02-23 22:35:00,
2013-02-23 17:40:00,46.2,44.9,29.75,North,6,0.0,2.7,95,0.00,,---,0.12,VWS V13.01,2013-02-23 22:40:00,
2013-02-23 17:45:00,46.0,44.7,29.75,North,349,0.0,0.0,95,0.00,,---,0.12,VWS V13.01,2013-02-23 22:45:00,
2013-02-23 17:50:00,46.0,44.7,29.75,NNE,33,2.2,2.2,95,0.00,,---,0.12,VWS V13.01,2013-02-23 22:50:00,
2013-02-23 17:55:00,45.9,44.8,29.75,NNE,26,3.6,3.6,96,0.00,,---,0.12,VWS V13.01,2013-02-23 22:55:00,
2013-02-23 18:00:00,45.9,44.8,29.75,North,4,0.0,2.2,96,0.00,,---,0.12,VWS V13.01,2013-02-23 23:00:00,
2013-02-23 18:05:00,45.9,44.8,29.75,North,357,2.7,3.6,96,0.00,,---,0.12,VWS V13.01,2013-02-23 23:05:00,
2013-02-23 18:10:00,45.7,44.6,29.75,NNE,31,2.7,4.0,96,0.00,,---,0.12,VWS V13.01,2013-02-23 23:10:00,
2013-02-23 18:15:00,45.7,44.6,29.75,North,2,0.0,3.1,96,0.00,,---,0.12,VWS V13.01,2013-02-23 23:15:00,
2013-02-23 18:20:00,45.7,44.6,29.75,NNW,340,2.7,2.7,96,0.00,,---,0.12,VWS V13.01,2013-02-23 23:20:00,
2013-02-23 18:25:00,45.7,44.6,29.75,NNW,336,0.0,0.0,96,0.00,,---,0.12,VWS V13.01,2013-02-23 23:25:00,
2013-02-23 18:30:00,45.7,44.6,29.75,NNW,328,0.0,0.0,96,0.00,,---,0.12,VWS V13.01,2013-02-23 23:30:00,
2013-02-23 18:35:00,45.7,44.6,29.75,North,353,2.2,2.2,96,0.00,,---,0.12,VWS V13.01,2013-02-23 23:35:00,
2013-02-23 18:40:00,45.5,44.4,29.75,NNW,327,0.0,2.2,96,0.00,,---,0.12,VWS V13.01,2013-02-23 23:40:00,
2013-02-23 18:45:00,45.5,44.4,29.75,WNW,291,0.0,0.0,96,0.00,,---,0.12,VWS V13.01,2013-02-23 23:45:00,
2013-02-23 18:50:00,45.5,44.4,29.75,NNW,343,0.0,2.2,96,0.00,,---,0.12,VWS V13.01,2013-02-23 23:50:00,
2013-02-23 18:55:00,45.5,44.4,29.75,NW,323,2.2,2.2,96,0.00,,---,0.12,VWS V13.01,2013-02-23 23:55:00,
2013-02-23 19:00:00,45.5,44.4,29.75,WNW,289,2.7,2.7,96,0.00,,---,0.12,VWS V13.01,2013-02-24 00:00:00,
2013-02-23 19:05:00,45.5,44.4,29.75,North,350,0.0,0.0,96,0.00,,---,0.12,VWS V13.01,2013-02-24 00:05:00,
2013-02-23 19:10:00,45.5,44.4,29.75,NW,316,2.2,2.7,96,0.00,,---,0.12,VWS V13.01,2013-02-24 00:10:00,
2013-02-23 19:15:00,45.5,44.4,29.75,NNE,32,0.0,0.0,96,0.00,,---,0.12,VWS V13.01,2013-02-24 00:15:00,
2013-02-23 19:20:00,45.5,44.4,29.75,NNW,333,0.0,0.0,96,0.00,,---,0.12,VWS V13.01,2013-02-24 00:20:00,
2013-02-23 19:25:00,45.3,44.2,29.75,NW,326,0.0,2.2,96,0.00,,---,0.12,VWS V13.01,2013-02-24 00:25:00,
2013-02-23 19:30:00,45.3,44.2,29.75,NNW,330,2.2,2.2,96,0.00,,---,0.12,VWS V13.01,2013-02-24 00:30:00,
2013-02-23 19:35:00,45.3,44.2,29.75,NW,326,0.0,0.0,96,0.00,,---,0.12,VWS V13.01,2013-02-24 00:35:00,
2013-02-23 19:40:00,45.3,44.2,29.75,NW,326,0.0,0.0,96,0.00,,---,0.12,VWS V13.01,2013-02-24 00:40:00,
2013-02-23 19:45:00,45.3,44.2,29.75,NW,319,0.0,0.0,96,0.00,,---,0.12,VWS V13.01,2013-02-24 00:45:00,
2013-02-23 19:50:00,45.3,44.2,29.75,NNW,335,0.0,2.2,96,0.00,,---,0.12,VWS V13.01,2013-02-24 00:50:00,
2013-02-23 19:55:00,45.3,44.2,29.75,North,3,0.0,0.0,96,0.00,,---,0.12,VWS V13.01,2013-02-24 00:55:00,
2013-02-23 20:00:00,45.3,44.2,29.75,North,2,0.0,0.0,96,0.00,,---,0.12,VWS V13.01,2013-02-24 01:00:00,
2013-02-23 20:05:00,45.3,44.2,29.75,ENE,61,0.0,0.0,96,0.00,,---,0.12,VWS V13.01,2013-02-24 01:05:00,
2013-02-23 20:10:00,45.3,44.2,29.75,NW,312,0.0,2.2,96,0.00,,---,0.12,VWS V13.01,2013-02-24 01:10:00,
2013-02-23 20:15:00,45.3,44.2,29.75,North,0,3.6,3.6,96,0.00,,---,0.12,VWS V13.01,2013-02-24 01:15:00,
2013-02-23 20:20:00,45.3,44.2,29.75,WNW,287,2.2,2.2,96,0.00,,---,0.12,VWS V13.01,2013-02-24 01:20:00,
2013-02-23 20:25:00,45.1,44.1,29.75,WNW,302,2.7,2.7,96,0.00,,---,0.12,VWS V13.01,2013-02-24 01:25:00,
2013-02-23 20:30:00,45.1,44.3,29.72,NNW,334,4.0,4.0,97,0.00,,---,0.12,VWS V13.01,2013-02-24 01:30:00,
2013-02-23 20:35:00,45.1,44.3,29.72,NW,310,0.0,0.0,97,0.00,,---,0.12,VWS V13.01,2013-02-24 01:35:00,
2013-02-23 20:40:00,45.1,44.3,29.72,WNW,293,2.7,3.1,97,0.00,,---,0.12,VWS V13.01,2013-02-24 01:40:00,
2013-02-23 20:45:00,45.1,44.3,29.72,WNW,292,0.0,0.0,97,0.00,,---,0.12,VWS V13.01,2013-02-24 01:45:00,
2013-02-23 20:50:00,45.1,44.3,29.72,North,353,0.0,4.9,97,0.00,,---,0.12,VWS V13.01,2013-02-24 01:50:00,
2013-02-23 20:55:00,45.1,44.3,29.72,West,264,0.0,2.2,97,0.00,,---,0.12,VWS V13.01,2013-02-24 01:55:00,
2013-02-23 21:00:00,45.1,44.3,29.72,NNE,21,0.0,2.7,97,0.00,,---,0.12,VWS V13.01,2013-02-24 02:00:00,
2013-02-23 21:05:00,45.1,44.3,29.72,NNE,18,0.0,0.0,97,0.00,,---,0.12,VWS V13.01,2013-02-24 02:05:00,
2013-02-23 21:10:00,45.1,44.3,29.72,North,357,0.0,0.0,97,0.00,,---,0.12,VWS V13.01,2013-02-24 02:10:00,
2013-02-23 21:15:00,45.1,44.3,29.72,North,353,0.0,2.2,97,0.00,,---,0.12,VWS V13.01,2013-02-24 02:15:00,
2013-02-23 21:20:00,45.1,44.3,29.72,WNW,286,2.7,3.1,97,0.00,,---,0.12,VWS V13.01,2013-02-24 02:20:00,
2013-02-23 21:25:00,45.1,44.6,29.72,NNW,330,2.2,2.2,98,0.00,,---,0.12,VWS V13.01,2013-02-24 02:25:00,
2013-02-23 21:30:00,45.1,44.6,29.72,NW,313,2.7,2.7,98,0.00,,---,0.12,VWS V13.01,2013-02-24 02:30:00,
2013-02-23 21:35:00,45.1,44.6,29.72,WNW,303,4.5,4.5,98,0.00,,---,0.12,VWS V13.01,2013-02-24 02:35:00,
2013-02-23 21:40:00,45.1,44.6,29.72,North,353,3.1,3.1,98,0.00,,---,0.12,VWS V13.01,2013-02-24 02:40:00,
2013-02-23 21:45:00,45.1,44.6,29.72,NNW,343,2.2,2.2,98,0.00,,---,0.12,VWS V13.01,2013-02-24 02:45:00,
2013-02-23 21:50:00,45.1,44.6,29.72,North,8,2.2,3.1,98,0.00,,---,0.12,VWS V13.01,2013-02-24 02:50:00,
2013-02-23 21:55:00,45.1,44.6,29.72,WNW,297,3.1,3.1,98,0.00,,---,0.12,VWS V13.01,2013-02-24 02:55:00,
2013-02-23 22:00:00,45.0,44.4,29.72,WNW,292,2.7,2.7,98,0.00,,---,0.12,VWS V13.01,2013-02-24 03:00:00,
2013-02-23 22:05:00,45.0,44.4,29.72,West,279,4.9,4.9,98,0.00,,---,0.12,VWS V13.01,2013-02-24 03:05:00,
2013-02-23 22:10:00,45.0,44.4,29.72,WNW,286,3.1,3.1,98,0.00,,---,0.12,VWS V13.01,2013-02-24 03:10:00,
2013-02-23 22:15:00,44.8,44.2,29.72,NNE,12,2.7,4.0,98,0.00,,---,0.12,VWS V13.01,2013-02-24 03:15:00,
2013-02-23 22:20:00,44.8,44.2,29.72,North,2,2.7,5.4,98,0.00,,---,0.12,VWS V13.01,2013-02-24 03:20:00,
2013-02-23 22:25:00,44.8,44.2,29.72,NW,325,2.7,5.4,98,0.00,,---,0.12,VWS V13.01,2013-02-24 03:25:00,
2013-02-23 22:30:00,44.8,44.2,29.72,WNW,289,2.7,2.7,98,0.00,,---,0.12,VWS V13.01,2013-02-24 03:30:00,
2013-02-23 22:35:00,44.6,44.1,29.72,ENE,76,2.2,3.6,98,0.00,,---,0.12,VWS V13.01,2013-02-24 03:35:00,
2013-02-23 22:40:00,44.6,44.1,29.72,North,10,2.2,3.1,98,0.00,,---,0.12,VWS V13.01,2013-02-24 03:40:00,
2013-02-23 22:45:00,44.6,44.1,29.72,NNW,337,0.0,0.0,98,0.00,,---,0.12,VWS V13.01,2013-02-24 03:45:00,
2013-02-23 22:50:00,44.6,44.1,29.72,North,0,0.0,4.0,98,0.00,,---,0.12,VWS V13.01,2013-02-24 03:50:00,
2013-02-23 22:55:00,44.6,44.1,29.72,NNW,340,4.0,4.0,98,0.00,,---,0.12,VWS V13.01,2013-02-24 03:55:00,
2013-02-23 23:00:00,44.6,44.1,29.72,WSW,257,4.0,4.0,98,0.00,,---,0.12,VWS V13.01,2013-02-24 04:00:00,
2013-02-23 23:05:00,44.6,44.1,29.72,North,357,2.7,2.7,98,0.00,,---,0.12,VWS V13.01,2013-02-24 04:05:00,
2013-02-23 23:10:00,44.6,44.1,29.72,West,265,3.6,3.6,98,0.00,,---,0.12,VWS V13.01,2013-02-24 04:10:00,
2013-02-23 23:15:00,44.6,44.1,29.72,NNW,341,2.2,2.7,98,0.00,,---,0.12,VWS V13.01,2013-02-24 04:15:00,
2013-02-23 23:20:00,44.4,43.9,29.72,NE,46,0.0,3.1,98,0.00,,---,0.12,VWS V13.01,2013-02-24 04:20:00,
2013-02-23 23:25:00,44.4,43.9,29.72,NNW,341,0.0,3.6,98,0.00,,---,0.12,VWS V13.01,2013-02-24 04:25:00,
2013-02-23 23:30:00,44.2,43.7,29.72,North,353,0.0,3.1,98,0.00,,---,0.12,VWS V13.01,2013-02-24 04:30:00,
2013-02-23 23:35:00,44.2,43.7,29.72,West,259,2.7,2.7,98,0.00,,---,0.12,VWS V13.01,2013-02-24 04:35:00,
2013-02-23 23:40:00,44.2,43.7,29.72,WNW,294,2.2,3.1,98,0.00,,---,0.12,VWS V13.01,2013-02-24 04:40:00,
2013-02-23 23:45:00,44.2,43.7,29.72,North,353,2.2,2.7,98,0.00,,---,0.12,VWS V13.01,2013-02-24 04:45:00,
2013-02-23 23:50:00,44.2,43.7,29.72,NNE,26,0.0,0.0,98,0.00,,---,0.12,VWS V13.01,2013-02-24 04:50:00,
2013-02-23 23:55:00,44.1,43.5,29.72,North,6,3.1,3.1,98,0.00,,---,0.12,VWS V13.01,2013-02-24 04:55:00,